sensor_id;sensor_type;location;lat;lon;timestamp;P1;P2;P0
74333;PMS5003;62753;40.394;-80.022;2023-07-20T00:01:42;36;33;
74333;PMS5003;62753;40.394;-80.022;2023-07-20T00:04:07;35;30;
74333;PMS5003;62753;40.394;-80.022;2023-07-20T00:06:32;30;27;
74333;PMS5003;62753;40.394;-80.022;2023-07-20T00:08:58;34;33;
74333;PMS5003;62753;40.394;-80.022;2023-07-20T00:11:25;34;29;
74333;PMS5003;62753;40.394;-80.022;2023-07-20T00:13:48;33;27;
74333;PMS5003;62753;40.394;-80.022;2023-07-20T00:16:14;32;28;
74333;PMS5003;62753;40.394;-80.022;2023-07-20T00:18:39;33;30;
74333;PMS5003;62753;40.394;-80.022;2023-07-20T00:21:04;31;28;
74333;PMS5003;62753;40.394;-80.022;2023-07-20T00:23:29;31;28;
74333;PMS5003;62753;40.394;-80.022;2023-07-20T00:25:55;40;33;
74333;PMS5003;62753;40.394;-80.022;2023-07-20T00:28:21;35;28;
74333;PMS5003;62753;40.394;-80.022;2023-07-20T00:30:46;32;28;
74333;PMS5003;62753;40.394;-80.022;2023-07-20T00:33:11;41;32;
74333;PMS5003;62753;40.394;-80.022;2023-07-20T00:35:36;35;31;
74333;PMS5003;62753;40.394;-80.022;2023-07-20T00:38:02;37;30;
74333;PMS5003;62753;40.394;-80.022;2023-07-20T00:40:27;31;30;
74333;PMS5003;62753;40.394;-80.022;2023-07-20T00:42:52;30;29;
74333;PMS5003;62753;40.394;-80.022;2023-07-20T00:45:18;36;29;
74333;PMS5003;62753;40.394;-80.022;2023-07-20T00:47:44;31;28;
74333;PMS5003;62753;40.394;-80.022;2023-07-20T00:50:09;37;30;
74333;PMS5003;62753;40.394;-80.022;2023-07-20T00:52:34;31;27;
74333;PMS5003;62753;40.394;-80.022;2023-07-20T00:55:00;36;30;
74333;PMS5003;62753;40.394;-80.022;2023-07-20T00:57:26;29;27;
74333;PMS5003;62753;40.394;-80.022;2023-07-20T00:59:51;38;33;
74333;PMS5003;62753;40.394;-80.022;2023-07-20T01:02:17;35;29;
74333;PMS5003;62753;40.394;-80.022;2023-07-20T01:04:43;34;29;
74333;PMS5003;62753;40.394;-80.022;2023-07-20T01:07:11;29;26;
74333;PMS5003;62753;40.394;-80.022;2023-07-20T01:09:36;27;25;
74333;PMS5003;62753;40.394;-80.022;2023-07-20T01:12:00;31;27;
74333;PMS5003;62753;40.394;-80.022;2023-07-20T01:14:24;36;28;
74333;PMS5003;62753;40.394;-80.022;2023-07-20T01:16:49;30;28;
74333;PMS5003;62753;40.394;-80.022;2023-07-20T01:19:14;33;29;
74333;PMS5003;62753;40.394;-80.022;2023-07-20T01:21:41;34;29;
74333;PMS5003;62753;40.394;-80.022;2023-07-20T01:24:11;28;26;
74333;PMS5003;62753;40.394;-80.022;2023-07-20T01:26:37;29;27;
74333;PMS5003;62753;40.394;-80.022;2023-07-20T01:29:01;35;28;
74333;PMS5003;62753;40.394;-80.022;2023-07-20T01:31:21;33;25;
74333;PMS5003;62753;40.394;-80.022;2023-07-20T01:33:46;25;24;
74333;PMS5003;62753;40.394;-80.022;2023-07-20T01:36:12;26;24;
74333;PMS5003;62753;40.394;-80.022;2023-07-20T01:38:38;23;22;
74333;PMS5003;62753;40.394;-80.022;2023-07-20T01:41:03;33;27;
74333;PMS5003;62753;40.394;-80.022;2023-07-20T01:43:29;28;26;
74333;PMS5003;62753;40.394;-80.022;2023-07-20T01:45:54;30;27;
74333;PMS5003;62753;40.394;-80.022;2023-07-20T01:48:19;31;26;
74333;PMS5003;62753;40.394;-80.022;2023-07-20T01:50:45;28;26;
74333;PMS5003;62753;40.394;-80.022;2023-07-20T01:53:11;27;23;
74333;PMS5003;62753;40.394;-80.022;2023-07-20T01:55:36;27;21;
74333;PMS5003;62753;40.394;-80.022;2023-07-20T01:58:02;32;26;
74333;PMS5003;62753;40.394;-80.022;2023-07-20T02:00:27;32;25;
74333;PMS5003;62753;40.394;-80.022;2023-07-20T02:02:52;32;26;
74333;PMS5003;62753;40.394;-80.022;2023-07-20T02:05:18;26;25;
74333;PMS5003;62753;40.394;-80.022;2023-07-20T02:07:44;26;22;
74333;PMS5003;62753;40.394;-80.022;2023-07-20T02:10:09;25;23;
74333;PMS5003;62753;40.394;-80.022;2023-07-20T02:12:35;27;24;
74333;PMS5003;62753;40.394;-80.022;2023-07-20T02:15:01;27;21;
74333;PMS5003;62753;40.394;-80.022;2023-07-20T02:17:26;19;19;
74333;PMS5003;62753;40.394;-80.022;2023-07-20T02:19:52;24;21;
74333;PMS5003;62753;40.394;-80.022;2023-07-20T02:22:17;19;19;
74333;PMS5003;62753;40.394;-80.022;2023-07-20T02:24:42;22;20;
74333;PMS5003;62753;40.394;-80.022;2023-07-20T02:27:08;20;19;
74333;PMS5003;62753;40.394;-80.022;2023-07-20T02:29:34;24;23;
74333;PMS5003;62753;40.394;-80.022;2023-07-20T02:32:00;20;17;
74333;PMS5003;62753;40.394;-80.022;2023-07-20T02:34:24;25;21;
74333;PMS5003;62753;40.394;-80.022;2023-07-20T02:36:50;21;18;
74333;PMS5003;62753;40.394;-80.022;2023-07-20T02:39:16;23;21;
74333;PMS5003;62753;40.394;-80.022;2023-07-20T02:41:41;21;20;
74333;PMS5003;62753;40.394;-80.022;2023-07-20T02:44:07;23;17;
74333;PMS5003;62753;40.394;-80.022;2023-07-20T02:46:33;21;19;
74333;PMS5003;62753;40.394;-80.022;2023-07-20T02:48:58;26;22;
74333;PMS5003;62753;40.394;-80.022;2023-07-20T02:51:23;28;22;
74333;PMS5003;62753;40.394;-80.022;2023-07-20T02:53:48;21;20;
74333;PMS5003;62753;40.394;-80.022;2023-07-20T02:56:14;22;19;
74333;PMS5003;62753;40.394;-80.022;2023-07-20T02:58:41;23;22;
74333;PMS5003;62753;40.394;-80.022;2023-07-20T03:01:06;23;21;
74333;PMS5003;62753;40.394;-80.022;2023-07-20T03:03:31;20;19;
74333;PMS5003;62753;40.394;-80.022;2023-07-20T03:05:56;18;18;
74333;PMS5003;62753;40.394;-80.022;2023-07-20T03:08:21;23;20;
74333;PMS5003;62753;40.394;-80.022;2023-07-20T03:10:47;23;21;
74333;PMS5003;62753;40.394;-80.022;2023-07-20T03:13:12;16;16;
74333;PMS5003;62753;40.394;-80.022;2023-07-20T03:15:38;23;21;
74333;PMS5003;62753;40.394;-80.022;2023-07-20T03:18:03;23;22;
74333;PMS5003;62753;40.394;-80.022;2023-07-20T03:20:30;19;19;
74333;PMS5003;62753;40.394;-80.022;2023-07-20T03:22:55;21;19;
74333;PMS5003;62753;40.394;-80.022;2023-07-20T03:25:20;19;17;
74333;PMS5003;62753;40.394;-80.022;2023-07-20T03:27:46;18;17;
74333;PMS5003;62753;40.394;-80.022;2023-07-20T03:30:11;19;18;
74333;PMS5003;62753;40.394;-80.022;2023-07-20T03:32:36;18;17;
74333;PMS5003;62753;40.394;-80.022;2023-07-20T03:35:03;21;18;
74333;PMS5003;62753;40.394;-80.022;2023-07-20T03:37:27;27;22;
74333;PMS5003;62753;40.394;-80.022;2023-07-20T03:39:54;22;21;
74333;PMS5003;62753;40.394;-80.022;2023-07-20T03:42:18;22;20;
74333;PMS5003;62753;40.394;-80.022;2023-07-20T03:44:44;16;15;
74333;PMS5003;62753;40.394;-80.022;2023-07-20T03:47:09;19;17;
74333;PMS5003;62753;40.394;-80.022;2023-07-20T03:49:35;28;21;
74333;PMS5003;62753;40.394;-80.022;2023-07-20T03:52:00;17;15;
74333;PMS5003;62753;40.394;-80.022;2023-07-20T03:54:26;23;22;
74333;PMS5003;62753;40.394;-80.022;2023-07-20T03:56:51;24;23;
74333;PMS5003;62753;40.394;-80.022;2023-07-20T03:59:17;25;20;
74333;PMS5003;62753;40.394;-80.022;2023-07-20T04:01:43;23;22;
74333;PMS5003;62753;40.394;-80.022;2023-07-20T04:04:08;28;24;
74333;PMS5003;62753;40.394;-80.022;2023-07-20T04:06:34;22;20;
74333;PMS5003;62753;40.394;-80.022;2023-07-20T04:09:00;26;22;
74333;PMS5003;62753;40.394;-80.022;2023-07-20T04:11:25;26;23;
74333;PMS5003;62753;40.394;-80.022;2023-07-20T04:13:50;23;21;
74333;PMS5003;62753;40.394;-80.022;2023-07-20T04:16:16;22;21;
74333;PMS5003;62753;40.394;-80.022;2023-07-20T04:18:41;24;20;
74333;PMS5003;62753;40.394;-80.022;2023-07-20T04:21:07;25;19;
74333;PMS5003;62753;40.394;-80.022;2023-07-20T04:23:32;27;20;
74333;PMS5003;62753;40.394;-80.022;2023-07-20T04:25:57;27;22;
74333;PMS5003;62753;40.394;-80.022;2023-07-20T04:28:23;23;21;
74333;PMS5003;62753;40.394;-80.022;2023-07-20T04:30:49;19;17;
74333;PMS5003;62753;40.394;-80.022;2023-07-20T04:33:14;24;23;
74333;PMS5003;62753;40.394;-80.022;2023-07-20T04:35:45;26;19;
74333;PMS5003;62753;40.394;-80.022;2023-07-20T04:38:05;20;19;
74333;PMS5003;62753;40.394;-80.022;2023-07-20T04:40:30;24;21;
74333;PMS5003;62753;40.394;-80.022;2023-07-20T04:42:56;22;19;
74333;PMS5003;62753;40.394;-80.022;2023-07-20T04:45:21;25;24;
74333;PMS5003;62753;40.394;-80.022;2023-07-20T04:47:46;23;19;
74333;PMS5003;62753;40.394;-80.022;2023-07-20T04:50:11;29;24;
74333;PMS5003;62753;40.394;-80.022;2023-07-20T04:52:37;27;25;
74333;PMS5003;62753;40.394;-80.022;2023-07-20T04:55:03;26;23;
74333;PMS5003;62753;40.394;-80.022;2023-07-20T04:57:28;24;20;
74333;PMS5003;62753;40.394;-80.022;2023-07-20T04:59:54;25;21;
74333;PMS5003;62753;40.394;-80.022;2023-07-20T05:02:19;31;26;
74333;PMS5003;62753;40.394;-80.022;2023-07-20T05:04:45;28;24;
74333;PMS5003;62753;40.394;-80.022;2023-07-20T05:07:10;25;24;
74333;PMS5003;62753;40.394;-80.022;2023-07-20T05:09:35;30;25;
74333;PMS5003;62753;40.394;-80.022;2023-07-20T05:12:00;24;23;
74333;PMS5003;62753;40.394;-80.022;2023-07-20T05:14:26;24;22;
74333;PMS5003;62753;40.394;-80.022;2023-07-20T05:16:51;32;26;
74333;PMS5003;62753;40.394;-80.022;2023-07-20T05:19:17;24;19;
74333;PMS5003;62753;40.394;-80.022;2023-07-20T05:21:41;27;24;
74333;PMS5003;62753;40.394;-80.022;2023-07-20T05:24:07;31;24;
74333;PMS5003;62753;40.394;-80.022;2023-07-20T05:26:32;24;21;
74333;PMS5003;62753;40.394;-80.022;2023-07-20T05:28:57;23;22;
74333;PMS5003;62753;40.394;-80.022;2023-07-20T05:31:22;22;20;
74333;PMS5003;62753;40.394;-80.022;2023-07-20T05:33:48;26;22;
74333;PMS5003;62753;40.394;-80.022;2023-07-20T05:36:13;22;20;
74333;PMS5003;62753;40.394;-80.022;2023-07-20T05:38:38;17;16;
74333;PMS5003;62753;40.394;-80.022;2023-07-20T05:41:03;18;17;
74333;PMS5003;62753;40.394;-80.022;2023-07-20T05:43:29;25;20;
74333;PMS5003;62753;40.394;-80.022;2023-07-20T05:45:54;22;18;
74333;PMS5003;62753;40.394;-80.022;2023-07-20T05:48:20;23;19;
74333;PMS5003;62753;40.394;-80.022;2023-07-20T05:50:45;18;17;
74333;PMS5003;62753;40.394;-80.022;2023-07-20T05:53:11;19;17;
74333;PMS5003;62753;40.394;-80.022;2023-07-20T05:55:37;25;19;
74333;PMS5003;62753;40.394;-80.022;2023-07-20T05:58:02;13;13;
74333;PMS5003;62753;40.394;-80.022;2023-07-20T06:00:27;20;17;
74333;PMS5003;62753;40.394;-80.022;2023-07-20T06:02:52;17;16;
74333;PMS5003;62753;40.394;-80.022;2023-07-20T06:05:17;25;23;
74333;PMS5003;62753;40.394;-80.022;2023-07-20T06:07:42;16;15;
74333;PMS5003;62753;40.394;-80.022;2023-07-20T06:10:09;21;20;
74333;PMS5003;62753;40.394;-80.022;2023-07-20T06:12:33;17;16;
74333;PMS5003;62753;40.394;-80.022;2023-07-20T06:15:01;17;16;
74333;PMS5003;62753;40.394;-80.022;2023-07-20T06:17:24;21;19;
74333;PMS5003;62753;40.394;-80.022;2023-07-20T06:19:50;18;17;
74333;PMS5003;62753;40.394;-80.022;2023-07-20T06:22:15;26;20;
74333;PMS5003;62753;40.394;-80.022;2023-07-20T06:24:41;22;20;
74333;PMS5003;62753;40.394;-80.022;2023-07-20T06:27:06;23;20;
74333;PMS5003;62753;40.394;-80.022;2023-07-20T06:29:32;18;18;
74333;PMS5003;62753;40.394;-80.022;2023-07-20T06:31:57;20;15;
74333;PMS5003;62753;40.394;-80.022;2023-07-20T06:34:23;16;16;
74333;PMS5003;62753;40.394;-80.022;2023-07-20T06:36:49;14;14;
74333;PMS5003;62753;40.394;-80.022;2023-07-20T06:39:14;15;14;
74333;PMS5003;62753;40.394;-80.022;2023-07-20T06:41:40;21;20;
74333;PMS5003;62753;40.394;-80.022;2023-07-20T06:44:05;21;19;
74333;PMS5003;62753;40.394;-80.022;2023-07-20T06:46:30;24;21;
74333;PMS5003;62753;40.394;-80.022;2023-07-20T06:48:56;17;14;
74333;PMS5003;62753;40.394;-80.022;2023-07-20T06:51:21;23;20;
74333;PMS5003;62753;40.394;-80.022;2023-07-20T06:53:47;25;23;
74333;PMS5003;62753;40.394;-80.022;2023-07-20T06:56:13;21;20;
74333;PMS5003;62753;40.394;-80.022;2023-07-20T06:58:38;20;19;
74333;PMS5003;62753;40.394;-80.022;2023-07-20T07:01:04;22;21;
74333;PMS5003;62753;40.394;-80.022;2023-07-20T07:03:28;21;20;
74333;PMS5003;62753;40.394;-80.022;2023-07-20T07:05:55;23;20;
74333;PMS5003;62753;40.394;-80.022;2023-07-20T07:08:19;20;19;
74333;PMS5003;62753;40.394;-80.022;2023-07-20T07:10:44;25;21;
74333;PMS5003;62753;40.394;-80.022;2023-07-20T07:13:10;21;18;
74333;PMS5003;62753;40.394;-80.022;2023-07-20T07:15:35;23;19;
74333;PMS5003;62753;40.394;-80.022;2023-07-20T07:18:00;21;20;
74333;PMS5003;62753;40.394;-80.022;2023-07-20T07:20:26;34;28;
74333;PMS5003;62753;40.394;-80.022;2023-07-20T07:22:51;29;26;
74333;PMS5003;62753;40.394;-80.022;2023-07-20T07:25:16;28;24;
74333;PMS5003;62753;40.394;-80.022;2023-07-20T07:27:42;27;24;
74333;PMS5003;62753;40.394;-80.022;2023-07-20T07:30:07;30;26;
74333;PMS5003;62753;40.394;-80.022;2023-07-20T07:32:33;32;26;
74333;PMS5003;62753;40.394;-80.022;2023-07-20T07:34:58;26;23;
74333;PMS5003;62753;40.394;-80.022;2023-07-20T07:37:24;27;21;
74333;PMS5003;62753;40.394;-80.022;2023-07-20T07:39:49;27;24;
74333;PMS5003;62753;40.394;-80.022;2023-07-20T07:42:15;28;26;
74333;PMS5003;62753;40.394;-80.022;2023-07-20T07:44:40;24;24;
74333;PMS5003;62753;40.394;-80.022;2023-07-20T07:47:06;30;29;
74333;PMS5003;62753;40.394;-80.022;2023-07-20T07:49:30;28;23;
74333;PMS5003;62753;40.394;-80.022;2023-07-20T07:51:56;31;26;
74333;PMS5003;62753;40.394;-80.022;2023-07-20T07:54:22;30;28;
74333;PMS5003;62753;40.394;-80.022;2023-07-20T07:56:48;26;22;
74333;PMS5003;62753;40.394;-80.022;2023-07-20T07:59:13;29;25;
74333;PMS5003;62753;40.394;-80.022;2023-07-20T08:01:39;32;30;
74333;PMS5003;62753;40.394;-80.022;2023-07-20T08:04:04;30;27;
74333;PMS5003;62753;40.394;-80.022;2023-07-20T08:06:29;27;22;
74333;PMS5003;62753;40.394;-80.022;2023-07-20T08:08:54;25;24;
74333;PMS5003;62753;40.394;-80.022;2023-07-20T08:11:20;28;25;
74333;PMS5003;62753;40.394;-80.022;2023-07-20T08:13:46;25;23;
74333;PMS5003;62753;40.394;-80.022;2023-07-20T08:16:12;27;24;
74333;PMS5003;62753;40.394;-80.022;2023-07-20T08:18:37;28;24;
74333;PMS5003;62753;40.394;-80.022;2023-07-20T08:21:02;26;24;
74333;PMS5003;62753;40.394;-80.022;2023-07-20T08:23:28;29;25;
74333;PMS5003;62753;40.394;-80.022;2023-07-20T08:25:53;26;25;
74333;PMS5003;62753;40.394;-80.022;2023-07-20T08:28:19;31;27;
74333;PMS5003;62753;40.394;-80.022;2023-07-20T08:30:45;33;28;
74333;PMS5003;62753;40.394;-80.022;2023-07-20T08:33:10;36;29;
74333;PMS5003;62753;40.394;-80.022;2023-07-20T08:35:36;31;30;
74333;PMS5003;62753;40.394;-80.022;2023-07-20T08:38:01;42;37;
74333;PMS5003;62753;40.394;-80.022;2023-07-20T08:40:27;51;45;
74333;PMS5003;62753;40.394;-80.022;2023-07-20T08:42:53;50;41;
74333;PMS5003;62753;40.394;-80.022;2023-07-20T08:45:18;45;43;
74333;PMS5003;62753;40.394;-80.022;2023-07-20T08:47:44;50;38;
74333;PMS5003;62753;40.394;-80.022;2023-07-20T08:50:09;44;42;
74333;PMS5003;62753;40.394;-80.022;2023-07-20T08:52:34;47;43;
74333;PMS5003;62753;40.394;-80.022;2023-07-20T08:55:00;49;46;
74333;PMS5003;62753;40.394;-80.022;2023-07-20T08:57:25;52;45;
74333;PMS5003;62753;40.394;-80.022;2023-07-20T08:59:51;57;50;
74333;PMS5003;62753;40.394;-80.022;2023-07-20T09:02:16;63;53;
74333;PMS5003;62753;40.394;-80.022;2023-07-20T09:04:41;57;48;
74333;PMS5003;62753;40.394;-80.022;2023-07-20T09:07:07;49;46;
74333;PMS5003;62753;40.394;-80.022;2023-07-20T09:09:32;61;53;
74333;PMS5003;62753;40.394;-80.022;2023-07-20T09:11:58;63;52;
74333;PMS5003;62753;40.394;-80.022;2023-07-20T09:14:23;68;56;
74333;PMS5003;62753;40.394;-80.022;2023-07-20T09:16:49;70;54;
74333;PMS5003;62753;40.394;-80.022;2023-07-20T09:19:14;62;50;
74333;PMS5003;62753;40.394;-80.022;2023-07-20T09:21:39;61;51;
74333;PMS5003;62753;40.394;-80.022;2023-07-20T09:24:05;58;49;
74333;PMS5003;62753;40.394;-80.022;2023-07-20T09:26:30;50;49;
74333;PMS5003;62753;40.394;-80.022;2023-07-20T09:28:56;46;43;
74333;PMS5003;62753;40.394;-80.022;2023-07-20T09:31:21;47;41;
74333;PMS5003;62753;40.394;-80.022;2023-07-20T09:33:47;48;40;
74333;PMS5003;62753;40.394;-80.022;2023-07-20T09:36:12;43;38;
74333;PMS5003;62753;40.394;-80.022;2023-07-20T09:38:37;44;37;
74333;PMS5003;62753;40.394;-80.022;2023-07-20T09:41:04;46;41;
74333;PMS5003;62753;40.394;-80.022;2023-07-20T09:43:28;43;39;
74333;PMS5003;62753;40.394;-80.022;2023-07-20T09:45:53;57;47;
74333;PMS5003;62753;40.394;-80.022;2023-07-20T09:48:22;51;43;
74333;PMS5003;62753;40.394;-80.022;2023-07-20T09:50:48;50;44;
74333;PMS5003;62753;40.394;-80.022;2023-07-20T09:53:11;62;54;
74333;PMS5003;62753;40.394;-80.022;2023-07-20T09:55:35;71;58;
74333;PMS5003;62753;40.394;-80.022;2023-07-20T09:58:01;58;51;
74333;PMS5003;62753;40.394;-80.022;2023-07-20T10:00:26;65;56;
74333;PMS5003;62753;40.394;-80.022;2023-07-20T10:02:52;49;43;
74333;PMS5003;62753;40.394;-80.022;2023-07-20T10:05:17;52;47;
74333;PMS5003;62753;40.394;-80.022;2023-07-20T10:07:44;51;44;
74333;PMS5003;62753;40.394;-80.022;2023-07-20T10:10:08;50;46;
74333;PMS5003;62753;40.394;-80.022;2023-07-20T10:12:34;53;47;
74333;PMS5003;62753;40.394;-80.022;2023-07-20T10:14:59;56;49;
74333;PMS5003;62753;40.394;-80.022;2023-07-20T10:17:24;57;48;
74333;PMS5003;62753;40.394;-80.022;2023-07-20T10:19:50;55;46;
74333;PMS5003;62753;40.394;-80.022;2023-07-20T10:22:16;61;44;
74333;PMS5003;62753;40.394;-80.022;2023-07-20T10:24:40;57;46;
74333;PMS5003;62753;40.394;-80.022;2023-07-20T10:27:06;61;49;
74333;PMS5003;62753;40.394;-80.022;2023-07-20T10:29:31;48;42;
74333;PMS5003;62753;40.394;-80.022;2023-07-20T10:31:57;55;45;
74333;PMS5003;62753;40.394;-80.022;2023-07-20T10:34:22;56;43;
74333;PMS5003;62753;40.394;-80.022;2023-07-20T10:36:48;57;47;
74333;PMS5003;62753;40.394;-80.022;2023-07-20T10:41:39;53;41;
74333;PMS5003;62753;40.394;-80.022;2023-07-20T10:44:04;57;47;
74333;PMS5003;62753;40.394;-80.022;2023-07-20T10:46:33;44;35;
74333;PMS5003;62753;40.394;-80.022;2023-07-20T10:48:58;54;42;
74333;PMS5003;62753;40.394;-80.022;2023-07-20T10:51:21;58;45;
74333;PMS5003;62753;40.394;-80.022;2023-07-20T10:53:48;45;42;
74333;PMS5003;62753;40.394;-80.022;2023-07-20T10:56:12;49;40;
74333;PMS5003;62753;40.394;-80.022;2023-07-20T10:58:37;48;43;
74333;PMS5003;62753;40.394;-80.022;2023-07-20T11:01:02;47;38;
74333;PMS5003;62753;40.394;-80.022;2023-07-20T11:03:28;48;39;
74333;PMS5003;62753;40.394;-80.022;2023-07-20T11:05:52;46;35;
74333;PMS5003;62753;40.394;-80.022;2023-07-20T11:08:37;43;35;
74333;PMS5003;62753;40.394;-80.022;2023-07-20T11:10:43;42;35;
74333;PMS5003;62753;40.394;-80.022;2023-07-20T11:13:18;39;34;
74333;PMS5003;62753;40.394;-80.022;2023-07-20T11:20:25;38;33;
74333;PMS5003;62753;40.394;-80.022;2023-07-20T11:22:51;39;30;
74333;PMS5003;62753;40.394;-80.022;2023-07-20T11:25:16;33;28;
74333;PMS5003;62753;40.394;-80.022;2023-07-20T11:27:44;39;34;
74333;PMS5003;62753;40.394;-80.022;2023-07-20T11:30:15;40;34;
74333;PMS5003;62753;40.394;-80.022;2023-07-20T11:32:32;34;30;
74333;PMS5003;62753;40.394;-80.022;2023-07-20T11:34:58;35;31;
74333;PMS5003;62753;40.394;-80.022;2023-07-20T11:37:23;47;36;
74333;PMS5003;62753;40.394;-80.022;2023-07-20T11:39:48;40;32;
74333;PMS5003;62753;40.394;-80.022;2023-07-20T11:42:14;46;38;
74333;PMS5003;62753;40.394;-80.022;2023-07-20T11:44:39;39;35;
74333;PMS5003;62753;40.394;-80.022;2023-07-20T11:47:06;37;32;
74333;PMS5003;62753;40.394;-80.022;2023-07-20T11:49:30;43;38;
74333;PMS5003;62753;40.394;-80.022;2023-07-20T11:51:56;37;30;
74333;PMS5003;62753;40.394;-80.022;2023-07-20T11:54:21;39;34;
74333;PMS5003;62753;40.394;-80.022;2023-07-20T11:56:46;32;30;
74333;PMS5003;62753;40.394;-80.022;2023-07-20T11:59:12;40;32;
74333;PMS5003;62753;40.394;-80.022;2023-07-20T12:01:37;36;31;
74333;PMS5003;62753;40.394;-80.022;2023-07-20T12:04:02;40;34;
74333;PMS5003;62753;40.394;-80.022;2023-07-20T12:06:27;39;30;
74333;PMS5003;62753;40.394;-80.022;2023-07-20T12:08:54;37;29;
74333;PMS5003;62753;40.394;-80.022;2023-07-20T12:13:43;40;32;
74333;PMS5003;62753;40.394;-80.022;2023-07-20T12:16:10;36;29;
74333;PMS5003;62753;40.394;-80.022;2023-07-20T12:18:34;33;31;
74333;PMS5003;62753;40.394;-80.022;2023-07-20T12:20:59;37;32;
74333;PMS5003;62753;40.394;-80.022;2023-07-20T12:23:25;35;29;
74333;PMS5003;62753;40.394;-80.022;2023-07-20T12:25:50;32;29;
74333;PMS5003;62753;40.394;-80.022;2023-07-20T12:28:16;43;38;
74333;PMS5003;62753;40.394;-80.022;2023-07-20T12:30:42;34;29;
74333;PMS5003;62753;40.394;-80.022;2023-07-20T12:33:07;38;29;
74333;PMS5003;62753;40.394;-80.022;2023-07-20T12:35:32;39;33;
74333;PMS5003;62753;40.394;-80.022;2023-07-20T12:37:57;40;31;
74333;PMS5003;62753;40.394;-80.022;2023-07-20T12:40:22;45;37;
74333;PMS5003;62753;40.394;-80.022;2023-07-20T12:42:48;39;35;
74333;PMS5003;62753;40.394;-80.022;2023-07-20T12:45:14;52;39;
74333;PMS5003;62753;40.394;-80.022;2023-07-20T12:47:40;32;31;
74333;PMS5003;62753;40.394;-80.022;2023-07-20T12:50:05;40;32;
74333;PMS5003;62753;40.394;-80.022;2023-07-20T12:52:30;40;32;
74333;PMS5003;62753;40.394;-80.022;2023-07-20T12:54:55;40;34;
74333;PMS5003;62753;40.394;-80.022;2023-07-20T12:57:21;35;28;
74333;PMS5003;62753;40.394;-80.022;2023-07-20T12:59:46;33;31;
74333;PMS5003;62753;40.394;-80.022;2023-07-20T13:02:11;46;41;
74333;PMS5003;62753;40.394;-80.022;2023-07-20T13:04:37;39;34;
74333;PMS5003;62753;40.394;-80.022;2023-07-20T13:07:02;39;33;
74333;PMS5003;62753;40.394;-80.022;2023-07-20T13:09:28;40;35;
74333;PMS5003;62753;40.394;-80.022;2023-07-20T13:11:53;35;31;
74333;PMS5003;62753;40.394;-80.022;2023-07-20T13:14:18;36;32;
74333;PMS5003;62753;40.394;-80.022;2023-07-20T13:16:43;38;30;
74333;PMS5003;62753;40.394;-80.022;2023-07-20T13:19:09;40;32;
74333;PMS5003;62753;40.394;-80.022;2023-07-20T13:21:35;37;33;
74333;PMS5003;62753;40.394;-80.022;2023-07-20T13:24:00;31;29;
74333;PMS5003;62753;40.394;-80.022;2023-07-20T13:26:26;33;30;
74333;PMS5003;62753;40.394;-80.022;2023-07-20T13:28:51;39;32;
74333;PMS5003;62753;40.394;-80.022;2023-07-20T13:31:16;43;38;
74333;PMS5003;62753;40.394;-80.022;2023-07-20T13:33:42;33;30;
74333;PMS5003;62753;40.394;-80.022;2023-07-20T13:36:09;37;33;
74333;PMS5003;62753;40.394;-80.022;2023-07-20T13:38:33;37;32;
74333;PMS5003;62753;40.394;-80.022;2023-07-20T13:40:59;46;37;
74333;PMS5003;62753;40.394;-80.022;2023-07-20T13:43:24;37;35;
74333;PMS5003;62753;40.394;-80.022;2023-07-20T13:45:49;44;38;
74333;PMS5003;62753;40.394;-80.022;2023-07-20T13:48:15;34;30;
74333;PMS5003;62753;40.394;-80.022;2023-07-20T13:50:40;40;36;
74333;PMS5003;62753;40.394;-80.022;2023-07-20T13:53:06;34;29;
74333;PMS5003;62753;40.394;-80.022;2023-07-20T13:55:31;31;26;
74333;PMS5003;62753;40.394;-80.022;2023-07-20T13:57:57;39;37;
74333;PMS5003;62753;40.394;-80.022;2023-07-20T14:00:23;37;32;
74333;PMS5003;62753;40.394;-80.022;2023-07-20T14:02:48;32;30;
74333;PMS5003;62753;40.394;-80.022;2023-07-20T14:05:14;33;30;
74333;PMS5003;62753;40.394;-80.022;2023-07-20T14:07:40;36;29;
74333;PMS5003;62753;40.394;-80.022;2023-07-20T14:10:05;37;32;
74333;PMS5003;62753;40.394;-80.022;2023-07-20T14:12:31;35;30;
74333;PMS5003;62753;40.394;-80.022;2023-07-20T14:14:56;33;31;
74333;PMS5003;62753;40.394;-80.022;2023-07-20T14:17:21;35;30;
74333;PMS5003;62753;40.394;-80.022;2023-07-20T14:19:47;34;30;
74333;PMS5003;62753;40.394;-80.022;2023-07-20T14:22:12;32;31;
74333;PMS5003;62753;40.394;-80.022;2023-07-20T14:24:38;38;33;
74333;PMS5003;62753;40.394;-80.022;2023-07-20T14:27:04;30;27;
74333;PMS5003;62753;40.394;-80.022;2023-07-20T14:29:29;36;31;
74333;PMS5003;62753;40.394;-80.022;2023-07-20T14:31:54;33;29;
74333;PMS5003;62753;40.394;-80.022;2023-07-20T14:34:19;34;30;
74333;PMS5003;62753;40.394;-80.022;2023-07-20T14:36:44;35;29;
74333;PMS5003;62753;40.394;-80.022;2023-07-20T14:39:10;32;29;
74333;PMS5003;62753;40.394;-80.022;2023-07-20T14:41:36;27;24;
74333;PMS5003;62753;40.394;-80.022;2023-07-20T14:44:01;32;29;
74333;PMS5003;62753;40.394;-80.022;2023-07-20T14:46:26;29;26;
74333;PMS5003;62753;40.394;-80.022;2023-07-20T14:48:52;33;30;
74333;PMS5003;62753;40.394;-80.022;2023-07-20T14:51:18;29;26;
74333;PMS5003;62753;40.394;-80.022;2023-07-20T14:53:43;38;33;
74333;PMS5003;62753;40.394;-80.022;2023-07-20T14:56:09;35;29;
74333;PMS5003;62753;40.394;-80.022;2023-07-20T14:58:35;35;29;
74333;PMS5003;62753;40.394;-80.022;2023-07-20T15:00:59;35;29;
74333;PMS5003;62753;40.394;-80.022;2023-07-20T15:03:25;33;28;
74333;PMS5003;62753;40.394;-80.022;2023-07-20T15:05:50;34;29;
74333;PMS5003;62753;40.394;-80.022;2023-07-20T15:08:15;33;29;
74333;PMS5003;62753;40.394;-80.022;2023-07-20T15:10:41;33;30;
74333;PMS5003;62753;40.394;-80.022;2023-07-20T15:13:06;31;29;
74333;PMS5003;62753;40.394;-80.022;2023-07-20T15:15:32;33;30;
74333;PMS5003;62753;40.394;-80.022;2023-07-20T15:17:57;34;27;
74333;PMS5003;62753;40.394;-80.022;2023-07-20T15:20:23;26;25;
74333;PMS5003;62753;40.394;-80.022;2023-07-20T15:22:48;31;26;
74333;PMS5003;62753;40.394;-80.022;2023-07-20T15:25:14;28;27;
74333;PMS5003;62753;40.394;-80.022;2023-07-20T15:27:39;28;27;
74333;PMS5003;62753;40.394;-80.022;2023-07-20T15:30:05;32;31;
74333;PMS5003;62753;40.394;-80.022;2023-07-20T15:32:30;27;27;
74333;PMS5003;62753;40.394;-80.022;2023-07-20T15:34:56;34;28;
74333;PMS5003;62753;40.394;-80.022;2023-07-20T15:37:21;23;22;
74333;PMS5003;62753;40.394;-80.022;2023-07-20T15:39:48;30;27;
74333;PMS5003;62753;40.394;-80.022;2023-07-20T15:42:13;29;27;
74333;PMS5003;62753;40.394;-80.022;2023-07-20T15:44:38;32;26;